Time;durP1;ratioP1;P1;durP2;ratioP2;P2;SDS_P1;SDS_P2;PMS_P1;PMS_P2;Temp;Humidity;BMP_temperature;BMP_pressure;BME280_temperature;BME280_humidity;BME280_pressure;Samples;Min_cycle;Max_cycle;Signal;HPM_P1;HPM_P2
2022/03/01 00:00:31;;;;;;;;;59.50;43.25;;;;;9.45;42.79;102207.63;5059656;28;45252;-47
2022/03/01 00:02:56;;;;;;;;;54.25;45.75;;;;;9.44;42.99;102219.84;5058807;28;45663;-48
2022/03/01 00:05:21;;;;;;;;;52.75;44.00;;;;;9.44;42.74;102221.63;5059858;28;45386;-46
2022/03/01 00:07:47;;;;;;;;;50.75;40.75;;;;;9.43;42.92;102217.22;5059859;28;45359;-47
2022/03/01 00:10:12;;;;;;;;;54.75;43.75;;;;;9.43;43.05;102214.59;5059812;28;45415;-44
2022/03/01 00:12:38;;;;;;;;;59.25;46.00;;;;;9.41;43.04;102213.72;5058560;28;45456;-46
2022/03/01 00:15:04;;;;;;;;;53.50;44.00;;;;;9.39;42.72;102207.56;5059718;28;46315;-49
2022/03/01 00:17:30;;;;;;;;;38.75;33.75;;;;;9.38;43.08;102204.06;5058544;28;45358;-47
2022/03/01 00:19:55;;;;;;;;;58.25;47.75;;;;;9.36;43.05;102207.53;5059736;28;45330;-45
2022/03/01 00:22:21;;;;;;;;;58.00;46.25;;;;;9.35;43.01;102206.63;5059901;28;45449;-49
2022/03/01 00:24:46;;;;;;;;;58.00;46.00;;;;;9.35;42.84;102217.13;5057986;28;48549;-46
2022/03/01 00:27:12;;;;;;;;;55.50;44.75;;;;;9.34;42.90;102211.84;5059642;28;45383;-45
2022/03/01 00:29:37;;;;;;;;;56.75;45.25;;;;;9.32;42.86;102210.94;5058153;28;45430;-49
2022/03/01 00:32:03;;;;;;;;;57.75;45.00;;;;;9.29;43.20;102201.28;5059839;28;45379;-48
2022/03/01 00:34:29;;;;;;;;;58.25;46.00;;;;;9.27;43.25;102213.50;5057164;28;46022;-46
2022/03/01 00:36:54;;;;;;;;;50.75;40.50;;;;;9.25;43.03;102210.84;5048885;28;45349;-47
2022/03/01 00:39:20;;;;;;;;;55.25;45.00;;;;;9.21;43.26;102201.19;5059706;28;45667;-45
2022/03/01 00:41:46;;;;;;;;;52.75;42.50;;;;;9.22;43.07;102194.16;5056456;28;45373;-45
2022/03/01 00:44:12;;;;;;;;;54.00;43.00;;;;;9.19;43.18;102196.78;5055554;28;46234;-45
2022/03/01 00:46:37;;;;;;;;;55.25;41.50;;;;;9.18;43.18;102197.63;5058474;28;45331;-46
2022/03/01 00:49:03;;;;;;;;;60.75;46.75;;;;;9.15;43.65;102206.31;5058255;28;45506;-46
2022/03/01 00:51:29;;;;;;;;;56.75;44.00;;;;;9.14;43.38;102201.06;5075152;28;45522;-47
2022/03/01 00:53:55;;;;;;;;;57.50;45.75;;;;;9.11;43.28;102205.41;5041146;28;45311;-46
2022/03/01 00:56:21;;;;;;;;;58.50;46.00;;;;;9.09;43.41;102199.25;5059709;28;45428;-47
2022/03/01 00:58:46;;;;;;;;;57.75;45.00;;;;;9.07;43.27;102208.84;5057761;28;45343;-47
2022/03/01 01:01:12;;;;;;;;;56.25;44.00;;;;;9.03;43.31;102203.50;5059532;28;45456;-46
2022/03/01 01:03:37;;;;;;;;;60.75;47.50;;;;;9.04;43.30;102207.91;5057980;28;46937;-46
2022/03/01 01:06:04;;;;;;;;;60.25;45.50;;;;;8.99;43.51;102199.94;5059720;28;45432;-48
2022/03/01 01:08:29;;;;;;;;;58.75;46.50;;;;;8.99;43.64;102212.19;5059189;28;45234;-46
2022/03/01 01:10:54;;;;;;;;;58.50;45.50;;;;;8.96;43.31;102210.41;5059974;28;45489;-46
2022/03/01 01:13:20;;;;;;;;;55.50;44.00;;;;;8.94;43.59;102213.00;5061128;28;45457;-48
2022/03/01 01:15:45;;;;;;;;;58.75;46.00;;;;;8.93;43.49;102212.97;5062758;28;45438;-46
2022/03/01 01:18:11;;;;;;;;;62.25;47.00;;;;;8.91;43.49;102215.56;5061577;28;45319;-45
2022/03/01 01:20:37;;;;;;;;;60.25;48.00;;;;;8.89;43.30;102204.19;5062605;28;45248;-45
2022/03/01 01:23:03;;;;;;;;;60.50;46.50;;;;;8.88;43.71;102202.44;5062512;28;45340;-45
2022/03/01 01:25:29;;;;;;;;;52.75;43.25;;;;;8.86;43.56;102201.50;5062519;28;45318;-47
2022/03/01 01:27:56;;;;;;;;;58.75;47.50;;;;;8.84;43.57;102195.38;5062241;28;45334;-47
2022/03/01 01:30:26;;;;;;;;;61.25;46.75;;;;;8.83;43.82;102201.47;5061222;28;45469;-45
2022/03/01 01:32:52;;;;;;;;;61.50;49.00;;;;;8.80;44.00;102188.31;5061010;28;47416;-48
2022/03/01 01:35:20;;;;;;;;;58.50;46.25;;;;;8.73;43.42;102174.22;5053263;28;45257;-47
2022/03/01 01:37:46;;;;;;;;;60.00;48.75;;;;;8.77;43.77;102183.03;5058513;28;45411;-46
2022/03/01 01:40:21;;;;;;;;;62.00;49.75;;;;;8.75;43.60;102184.72;5062262;28;45547;-47
2022/03/01 01:42:47;;;;;;;;;60.00;48.25;;;;;8.72;43.68;102182.94;5053287;28;45941;-45
2022/03/01 01:45:13;;;;;;;;;56.25;44.75;;;;;8.71;43.84;102177.69;5062365;28;45273;-45
2022/03/01 01:47:39;;;;;;;;;53.50;44.75;;;;;8.69;43.92;102188.13;5062287;28;45246;-45
2022/03/01 01:50:06;;;;;;;;;54.75;44.00;;;;;8.65;43.93;102175.81;5062117;28;45564;-47
2022/03/01 01:52:32;;;;;;;;;57.50;45.25;;;;;8.61;43.85;102176.63;5043983;28;48353;-46
2022/03/01 01:54:58;;;;;;;;;64.75;49.75;;;;;8.61;43.93;102177.50;5062004;28;45300;-49
2022/03/01 01:57:24;;;;;;;;;59.00;45.50;;;;;8.59;44.12;102186.19;5060702;28;45346;-46
2022/03/01 01:59:51;;;;;;;;;61.50;46.50;;;;;8.57;43.89;102185.31;5062085;28;45406;-48
2022/03/01 02:02:19;;;;;;;;;62.25;50.00;;;;;8.56;43.99;102180.91;5061897;28;45252;-48
2022/03/01 02:04:44;;;;;;;;;59.50;48.25;;;;;8.52;44.04;102185.22;5062006;28;45161;-47
2022/03/01 02:07:11;;;;;;;;;64.00;47.50;;;;;8.51;44.20;102185.19;5061843;28;45545;-48
2022/03/01 02:09:37;;;;;;;;;57.00;47.00;;;;;8.48;43.98;102191.28;5061712;28;45421;-47
2022/03/01 02:12:03;;;;;;;;;58.25;46.50;;;;;8.46;44.06;102187.72;5061457;28;46650;-46
2022/03/01 02:14:33;;;;;;;;;59.75;48.50;;;;;8.43;43.89;102188.53;5061819;28;45390;-47
2022/03/01 02:17:01;;;;;;;;;67.00;49.75;;;;;8.42;44.05;102196.38;5027168;28;45258;-48
2022/03/01 02:19:27;;;;;;;;;56.25;47.00;;;;;8.39;44.40;102194.56;5061746;28;45332;-49
2022/03/01 02:21:56;;;;;;;;;59.25;45.50;;;;;8.38;44.15;102199.78;5059348;28;47069;-50
2022/03/01 02:24:24;;;;;;;;;64.25;50.75;;;;;8.34;44.27;102191.00;5061527;28;45317;-48
2022/03/01 02:26:57;;;;;;;;;57.75;47.25;;;;;8.34;44.24;102201.47;5061596;28;45254;-50
2022/03/01 02:29:23;;;;;;;;;59.75;49.00;;;;;8.33;44.12;102198.78;5042252;28;45382;-46
2022/03/01 02:31:50;;;;;;;;;62.00;48.75;;;;;8.32;44.36;102199.69;5061549;28;46347;-47
2022/03/01 02:34:16;;;;;;;;;61.50;48.50;;;;;8.29;44.19;102195.25;5060864;28;45535;-51
2022/03/01 02:36:41;;;;;;;;;57.00;44.50;;;;;8.29;44.46;102201.38;5048823;28;45256;-46
2022/03/01 02:39:07;;;;;;;;;57.00;46.75;;;;;8.26;44.49;102190.84;5061306;28;45355;-48
2022/03/01 02:41:37;;;;;;;;;59.75;48.50;;;;;8.24;44.27;102186.44;5060483;28;46143;-48
2022/03/01 02:44:02;;;;;;;;;59.25;46.75;;;;;8.26;44.34;102187.34;5055954;28;45260;-48
2022/03/01 02:46:28;;;;;;;;;63.50;50.75;;;;;8.23;44.36;102180.31;5061631;28;45446;-49
2022/03/01 02:48:53;;;;;;;;;59.50;46.00;;;;;8.23;44.45;102185.53;5061093;28;45264;-47
2022/03/01 02:51:18;;;;;;;;;60.50;50.00;;;;;8.22;44.45;102178.53;5059907;28;47058;-46
2022/03/01 02:53:44;;;;;;;;;58.25;45.25;;;;;8.22;44.55;102185.53;5059795;28;45220;-49
2022/03/01 02:56:09;;;;;;;;;62.50;49.00;;;;;8.20;44.49;102175.03;5059984;28;45423;-48
2022/03/01 02:58:35;;;;;;;;;54.75;43.25;;;;;8.20;44.54;102184.59;5060785;28;45473;-47
2022/03/01 03:01:00;;;;;;;;;61.00;48.75;;;;;8.18;44.45;102191.56;5061080;28;45885;-49
2022/03/01 03:03:25;;;;;;;;;55.75;44.50;;;;;8.18;44.62;102188.94;5060919;28;45220;-47
2022/03/01 03:05:51;;;;;;;;;58.25;45.75;;;;;8.17;44.31;102187.19;5061323;28;45677;-47
2022/03/01 03:08:16;;;;;;;;;59.25;45.50;;;;;8.16;44.81;102195.88;5060646;28;45228;-50
2022/03/01 03:10:41;;;;;;;;;55.75;45.00;;;;;8.14;44.74;102204.59;5060626;28;45531;-48
2022/03/01 03:13:08;;;;;;;;;53.25;44.25;;;;;8.13;44.66;102199.31;5060471;28;45332;-48
2022/03/01 03:15:33;;;;;;;;;54.50;44.00;;;;;8.13;44.77;102197.56;5061198;28;45914;-48
2022/03/01 03:17:58;;;;;;;;;62.00;46.50;;;;;8.12;44.57;102203.66;5059323;28;45335;-50
2022/03/01 03:20:24;;;;;;;;;56.75;45.00;;;;;8.12;44.63;102208.03;5060563;28;45596;-49
2022/03/01 03:22:50;;;;;;;;;59.50;45.00;;;;;8.11;44.65;102204.53;5060472;28;45264;-48
2022/03/01 03:25:16;;;;;;;;;49.75;36.00;;;;;8.09;44.56;102198.38;5060975;28;45315;-50
2022/03/01 03:27:42;;;;;;;;;63.75;47.50;;;;;8.09;44.78;102200.13;5060201;28;45269;-50
2022/03/01 03:30:08;;;;;;;;;60.50;48.00;;;;;8.05;44.66;102196.56;5060455;28;46119;-47
2022/03/01 03:32:34;;;;;;;;;55.75;43.75;;;;;8.08;44.79;102199.22;5060265;28;45218;-52
2022/03/01 03:35:01;;;;;;;;;55.75;46.00;;;;;8.06;44.87;102187.84;5054051;28;45226;-49
2022/03/01 03:37:26;;;;;;;;;59.50;44.75;;;;;8.06;44.90;102190.47;5053925;28;45281;-50
2022/03/01 03:39:52;;;;;;;;;59.50;46.75;;;;;8.05;45.01;102186.09;5058781;28;47621;-51
2022/03/01 03:42:18;;;;;;;;;58.50;46.50;;;;;8.06;44.68;102186.97;5056096;28;45756;-50
2022/03/01 03:44:43;;;;;;;;;57.00;45.50;;;;;8.02;44.83;102183.38;5060071;28;45363;-58
2022/03/01 03:47:09;;;;;;;;;55.00;45.00;;;;;8.02;44.87;102183.38;5059099;28;45847;-51
2022/03/01 03:49:35;;;;;;;;;56.50;45.00;;;;;8.05;44.60;102191.31;5060049;28;47019;-49
2022/03/01 03:52:01;;;;;;;;;55.75;45.25;;;;;8.04;44.76;102186.94;5060359;28;45283;-48
2022/03/01 03:54:27;;;;;;;;;56.75;45.50;;;;;8.02;45.11;102180.78;5059129;28;45375;-50
2022/03/01 03:56:52;;;;;;;;;54.50;41.25;;;;;8.03;44.79;102179.06;5059889;28;45273;-50
2022/03/01 03:59:18;;;;;;;;;54.75;44.50;;;;;8.01;45.03;102173.75;5060060;28;45318;-46
2022/03/01 04:01:43;;;;;;;;;56.25;43.75;;;;;8.01;44.82;102172.91;5060115;28;45307;-46
2022/03/01 04:04:09;;;;;;;;;51.75;43.50;;;;;8.01;44.78;102179.00;5060506;28;45296;-51
2022/03/01 04:06:35;;;;;;;;;48.50;39.75;;;;;8.00;44.98;102173.75;5060126;28;45308;-50
2022/03/01 04:09:02;;;;;;;;;55.50;44.75;;;;;7.96;44.90;102167.56;5059527;28;45665;-49
2022/03/01 04:11:27;;;;;;;;;54.00;43.00;;;;;7.96;45.02;102172.78;5059584;28;45257;-49
2022/03/01 04:13:53;;;;;;;;;50.50;40.00;;;;;7.99;45.10;102183.34;5059068;28;45292;-48
2022/03/01 04:16:18;;;;;;;;;57.00;41.50;;;;;7.97;44.97;102180.72;5059767;28;45419;-46
2022/03/01 04:18:44;;;;;;;;;52.50;42.50;;;;;7.98;44.95;102174.59;5058667;28;45283;-47
2022/03/01 04:21:10;;;;;;;;;56.25;43.75;;;;;7.98;44.89;102173.72;5059646;28;45334;-48
2022/03/01 04:23:36;;;;;;;;;54.75;43.00;;;;;7.97;44.92;102175.47;5060032;28;45387;-48
2022/03/01 04:26:02;;;;;;;;;47.75;41.00;;;;;7.97;45.05;102166.72;5059591;28;45327;-49
2022/03/01 04:28:27;;;;;;;;;52.50;44.00;;;;;7.98;44.79;102168.47;5059405;28;45885;-48
2022/03/01 04:30:54;;;;;;;;;51.25;41.75;;;;;7.97;44.65;102162.38;5059557;28;45332;-49
2022/03/01 04:33:20;;;;;;;;;52.25;43.50;;;;;7.96;44.94;102164.94;5059928;28;45244;-49
2022/03/01 04:35:45;;;;;;;;;48.75;40.00;;;;;7.95;44.93;102168.44;5046580;28;45404;-50
2022/03/01 04:38:11;;;;;;;;;55.00;44.50;;;;;7.94;45.06;102167.53;5059126;28;45935;-46
2022/03/01 04:40:37;;;;;;;;;53.00;44.25;;;;;7.95;44.83;102171.06;5058149;28;45393;-47
2022/03/01 04:43:03;;;;;;;;;57.50;46.75;;;;;7.93;44.94;102163.16;5052705;28;45482;-48
2022/03/01 04:45:28;;;;;;;;;56.75;41.75;;;;;7.92;44.97;102156.19;5061124;28;45478;-48
2022/03/01 04:47:54;;;;;;;;;54.25;44.75;;;;;7.92;45.15;102153.56;5061701;28;47381;-46
2022/03/01 04:50:19;;;;;;;;;56.75;46.00;;;;;7.91;45.26;102158.75;5063159;28;45308;-46
2022/03/01 04:52:45;;;;;;;;;55.75;47.25;;;;;7.90;44.91;102165.72;5062008;28;45331;-48
2022/03/01 04:55:10;;;;;;;;;58.00;46.25;;;;;7.89;45.03;102163.94;5062966;28;45310;-47
2022/03/01 04:57:36;;;;;;;;;53.75;43.25;;;;;7.89;45.08;102174.41;5049452;28;45504;-47
2022/03/01 05:00:02;;;;;;;;;54.75;43.25;;;;;7.88;45.16;102166.56;5062982;28;45415;-47
2022/03/01 05:02:28;;;;;;;;;54.00;42.75;;;;;7.85;44.95;102166.47;5049955;28;45304;-48
2022/03/01 05:04:53;;;;;;;;;55.00;44.25;;;;;7.84;45.05;102160.38;5061614;28;45275;-47
2022/03/01 05:07:18;;;;;;;;;51.00;41.50;;;;;7.82;44.95;102164.69;5062828;28;45158;-46
2022/03/01 05:09:44;;;;;;;;;51.00;39.00;;;;;7.84;45.03;102165.59;5061378;28;45653;-46
2022/03/01 05:12:09;;;;;;;;;53.00;41.50;;;;;7.83;45.09;102162.97;5062619;28;45326;-48
2022/03/01 05:14:35;;;;;;;;;49.50;40.75;;;;;7.83;45.00;102169.06;5062801;28;45223;-49
2022/03/01 05:17:00;;;;;;;;;52.00;43.00;;;;;7.85;44.82;102172.59;5062640;28;45339;-46
2022/03/01 05:19:25;;;;;;;;;42.00;33.00;;;;;7.84;45.11;102160.38;5062601;28;45262;-49
2022/03/01 05:21:51;;;;;;;;;56.00;41.50;;;;;7.88;45.26;102169.16;5062757;28;45173;-47
2022/03/01 05:24:16;;;;;;;;;53.50;43.75;;;;;7.89;45.01;102163.09;5062475;28;45158;-49
2022/03/01 05:26:42;;;;;;;;;53.50;42.50;;;;;7.90;45.20;102165.72;5062195;28;46466;-48
2022/03/01 05:29:07;;;;;;;;;53.50;41.75;;;;;7.90;44.99;102163.09;5044295;28;45298;-46
2022/03/01 05:31:34;;;;;;;;;52.00;43.75;;;;;7.91;45.15;102166.59;5062635;28;45781;-49
2022/03/01 05:33:59;;;;;;;;;53.00;40.50;;;;;7.91;45.00;102164.88;5062401;28;45342;-49
2022/03/01 05:36:24;;;;;;;;;50.50;41.75;;;;;7.92;45.11;102160.50;5048693;28;45707;-50
2022/03/01 05:38:50;;;;;;;;;52.75;42.50;;;;;7.92;45.17;102155.28;5062354;28;45312;-48
2022/03/01 05:41:15;;;;;;;;;49.00;40.50;;;;;7.92;45.23;102152.66;5062174;28;45222;-49
2022/03/01 05:43:40;;;;;;;;;51.25;41.25;;;;;7.91;45.22;102151.78;5061473;28;45391;-45
2022/03/01 05:46:06;;;;;;;;;52.50;43.25;;;;;7.86;45.09;102145.59;5060626;28;45410;-48
2022/03/01 05:48:31;;;;;;;;;85.67;66.00;;;;;7.91;45.29;102153.50;5062243;28;45414;-49
2022/03/01 05:50:57;;;;;;;;;54.25;44.75;;;;;7.94;45.25;102162.31;5060901;28;45443;-48
2022/03/01 05:53:24;;;;;;;;;52.75;40.75;;;;;7.94;45.38;102159.69;5062095;28;45328;-48
2022/03/01 05:55:49;;;;;;;;;48.75;40.50;;;;;7.92;45.23;102157.91;5061314;28;45358;-46
2022/03/01 05:58:15;;;;;;;;;50.00;39.00;;;;;7.93;45.43;102160.53;5060964;28;45178;-45
2022/03/01 06:00:40;;;;;;;;;51.50;38.50;;;;;7.96;45.37;102157.09;5060759;28;45486;-50
2022/03/01 06:03:06;;;;;;;;;54.50;43.00;;;;;7.96;45.41;102158.00;5062310;28;45234;-47
2022/03/01 06:05:31;;;;;;;;;55.25;43.25;;;;;7.97;45.41;102145.78;5061684;28;46010;-47
2022/03/01 06:07:57;;;;;;;;;51.50;41.25;;;;;7.96;45.63;102150.13;5061941;28;45198;-47
2022/03/01 06:10:24;;;;;;;;;50.25;38.50;;;;;7.98;45.26;102155.41;5061579;28;45584;-45
2022/03/01 06:12:49;;;;;;;;;48.50;40.75;;;;;7.98;45.24;102155.41;5061648;28;45405;-48
2022/03/01 06:15:15;;;;;;;;;50.75;39.75;;;;;7.98;45.27;102158.88;5061473;28;46954;-47
2022/03/01 06:17:40;;;;;;;;;45.00;37.25;;;;;7.97;45.45;102148.38;5061789;28;45368;-45
2022/03/01 06:20:10;;;;;;;;;48.00;38.75;;;;;8.01;45.32;102158.06;5061747;28;45444;-46
2022/03/01 06:22:36;;;;;;;;;47.75;37.00;;;;;8.02;45.36;102164.19;5061711;28;45454;-45
2022/03/01 06:25:03;;;;;;;;;50.75;40.75;;;;;8.01;45.29;102155.44;5059936;28;46441;-46
2022/03/01 06:27:28;;;;;;;;;49.25;40.00;;;;;8.03;45.32;102163.34;5061309;28;45434;-46
2022/03/01 06:29:54;;;;;;;;;50.75;35.00;;;;;8.03;45.41;102171.19;5061474;28;45446;-45
2022/03/01 06:32:20;;;;;;;;;38.00;35.50;;;;;8.04;45.43;102172.97;5061513;28;45337;-46
2022/03/01 06:34:45;;;;;;;;;52.50;42.00;;;;;8.02;45.35;102164.19;5056648;28;45319;-45
2022/03/01 06:37:13;;;;;;;;;48.75;39.50;;;;;8.03;45.31;102165.97;5052690;28;45446;-51
2022/03/01 06:39:43;;;;;;;;;46.75;40.25;;;;;8.00;45.56;102171.13;5061241;28;45509;-45
2022/03/01 06:42:09;;;;;;;;;49.50;38.00;;;;;8.03;45.33;102181.69;5054984;28;45486;-45
2022/03/01 06:44:35;;;;;;;;;47.00;36.75;;;;;8.02;45.40;102186.00;5060304;28;46326;-46
2022/03/01 06:47:02;;;;;;;;;46.25;36.75;;;;;8.00;45.52;102174.66;5061327;28;45339;-56
2022/03/01 06:49:28;;;;;;;;;42.50;36.50;;;;;8.02;45.43;102180.78;5061208;28;45363;-49
2022/03/01 06:51:53;;;;;;;;;44.00;39.25;;;;;8.03;45.49;102181.69;5061282;28;45261;-47
2022/03/01 06:54:18;;;;;;;;;41.00;34.25;;;;;8.04;45.30;102167.75;5059496;28;46665;-45
2022/03/01 06:56:46;;;;;;;;;49.25;38.75;;;;;8.04;45.43;102168.59;5060993;28;45314;-48
2022/03/01 06:59:12;;;;;;;;;46.25;35.75;;;;;8.05;45.44;102173.00;5056010;28;45351;-45
2022/03/01 07:01:38;;;;;;;;;41.25;35.75;;;;;8.06;45.42;102173.88;5060882;28;45802;-46
2022/03/01 07:04:03;;;;;;;;;51.25;39.50;;;;;8.07;45.33;102183.50;5061162;28;46770;-46
2022/03/01 07:06:29;;;;;;;;;53.00;41.00;;;;;8.08;45.37;102185.25;5061025;28;45506;-50
2022/03/01 07:08:54;;;;;;;;;42.75;37.50;;;;;8.08;45.47;102190.50;5046754;28;45398;-45
2022/03/01 07:11:22;;;;;;;;;48.25;38.25;;;;;8.09;45.39;102189.66;5059397;28;46169;-48
2022/03/01 07:13:47;;;;;;;;;43.75;36.75;;;;;8.09;45.40;102185.28;5060799;28;46213;-47
2022/03/01 07:16:12;;;;;;;;;49.75;37.75;;;;;8.09;45.48;102194.88;5060782;28;45323;-46
2022/03/01 07:18:38;;;;;;;;;48.50;39.00;;;;;8.12;45.64;102208.88;5061059;28;45414;-46
2022/03/01 07:21:03;;;;;;;;;44.50;37.00;;;;;8.14;45.34;102207.19;5060677;28;45444;-49
2022/03/01 07:23:28;;;;;;;;;43.25;36.00;;;;;8.11;45.66;102207.16;5060773;28;46523;-50
2022/03/01 07:25:54;;;;;;;;;55.00;45.25;;;;;8.18;45.45;102217.75;5059141;28;45299;-50
2022/03/01 07:28:19;;;;;;;;;49.75;39.75;;;;;8.20;45.39;102222.16;5060562;28;45240;-48
2022/03/01 07:30:44;;;;;;;;;53.50;40.25;;;;;8.22;45.31;102217.81;5060631;28;45239;-48
2022/03/01 07:33:10;;;;;;;;;52.75;41.00;;;;;8.21;45.44;102207.31;5060597;28;45300;-53
2022/03/01 07:35:35;;;;;;;;;54.25;44.25;;;;;8.25;45.42;102214.38;5048834;28;45341;-52
2022/03/01 07:38:01;;;;;;;;;48.25;39.25;;;;;8.27;45.72;102210.06;5057176;28;45422;-51
2022/03/01 07:40:27;;;;;;;;;58.00;40.00;;;;;8.27;45.37;102217.91;5060391;28;45428;-50
2022/03/01 07:42:53;;;;;;;;;60.00;46.75;;;;;8.28;45.54;102210.06;5059950;28;46111;-51
2022/03/01 07:45:20;;;;;;;;;57.25;43.50;;;;;8.30;45.53;102207.47;5060417;28;45366;-50
2022/03/01 07:47:46;;;;;;;;;53.50;43.00;;;;;8.29;45.65;102205.75;5060605;28;45505;-51
2022/03/01 07:50:12;;;;;;;;;56.75;44.50;;;;;8.33;45.45;102207.56;5060358;28;45320;-51
2022/03/01 07:52:38;;;;;;;;;61.50;46.75;;;;;8.36;45.63;102214.59;5060379;28;45335;-54
2022/03/01 07:55:04;;;;;;;;;59.75;47.50;;;;;8.36;45.80;102212.84;5060244;28;45349;-50
2022/03/01 07:57:30;;;;;;;;;61.50;43.75;;;;;8.38;45.76;102213.75;5060181;28;45621;-51
2022/03/01 07:59:56;;;;;;;;;58.00;45.75;;;;;8.34;45.62;102198.84;5059031;28;45528;-47
2022/03/01 08:02:21;;;;;;;;;59.25;45.75;;;;;8.43;45.89;102209.47;5060129;28;45288;-50
2022/03/01 08:04:46;;;;;;;;;53.00;43.00;;;;;8.45;45.75;102202.53;5060294;28;45232;-49
2022/03/01 08:07:12;;;;;;;;;63.50;48.25;;;;;8.49;45.75;102202.63;5060091;28;45232;-49
2022/03/01 08:09:39;;;;;;;;;54.25;43.00;;;;;8.51;45.79;102207.03;5059875;28;45433;-51
2022/03/01 08:12:05;;;;;;;;;58.25;45.00;;;;;8.54;45.89;102207.09;5059749;28;46075;-47
2022/03/01 08:14:32;;;;;;;;;55.75;44.25;;;;;8.58;45.73;102214.16;5060008;28;45322;-52
2022/03/01 08:16:59;;;;;;;;;60.75;47.75;;;;;8.64;45.66;102228.22;5060015;28;45368;-51
2022/03/01 08:19:24;;;;;;;;;55.00;43.00;;;;;8.67;45.60;102228.28;5059082;28;45481;-50
2022/03/01 08:21:50;;;;;;;;;59.25;46.50;;;;;8.68;45.88;102220.44;5059686;28;46045;-51
2022/03/01 08:24:16;;;;;;;;;56.25;44.00;;;;;8.72;45.92;102222.25;5059734;28;45256;-47
2022/03/01 08:26:41;;;;;;;;;57.50;44.00;;;;;8.80;45.98;102226.75;5059786;28;45364;-49
2022/03/01 08:29:08;;;;;;;;;55.75;44.00;;;;;8.82;46.03;102225.91;5059764;28;45447;-48
2022/03/01 08:31:33;;;;;;;;;53.00;43.00;;;;;8.90;45.89;102233.91;5059530;28;45290;-48
2022/03/01 08:33:59;;;;;;;;;53.50;44.75;;;;;8.96;46.01;102227.91;5058357;28;45440;-51
2022/03/01 08:36:28;;;;;;;;;66.25;51.00;;;;;8.97;45.89;102222.66;5067591;28;45411;-50
2022/03/01 08:38:53;;;;;;;;;56.75;43.75;;;;;9.01;45.87;102213.13;5059554;28;45253;-50
2022/03/01 08:41:19;;;;;;;;;56.50;46.00;;;;;9.04;46.01;102213.16;5059345;28;45292;-47
2022/03/01 08:43:44;;;;;;;;;55.25;44.50;;;;;9.10;46.16;102213.25;5059635;28;45213;-52
2022/03/01 08:46:11;;;;;;;;;55.25;44.25;;;;;9.12;46.04;102211.53;5059821;28;45166;-50
2022/03/01 08:48:37;;;;;;;;;51.50;42.50;;;;;9.15;45.88;102216.81;5059628;28;45315;-50
2022/03/01 08:51:02;;;;;;;;;55.75;47.00;;;;;9.19;46.06;102209.88;5059437;28;46130;-49
2022/03/01 08:53:28;;;;;;;;;59.75;45.00;;;;;9.22;46.27;102210.81;5059826;28;45267;-50
2022/03/01 08:55:53;;;;;;;;;51.25;38.25;;;;;9.25;46.16;102209.97;5058282;28;45469;-47
2022/03/01 08:58:19;;;;;;;;;57.50;45.75;;;;;9.30;45.78;102215.31;5058185;28;46162;-49
2022/03/01 09:00:45;;;;;;;;;60.00;47.50;;;;;9.31;45.89;102204.81;5059534;28;46362;-50
2022/03/01 09:03:11;;;;;;;;;58.50;47.75;;;;;9.38;45.82;102216.28;5059557;28;45415;-50
2022/03/01 09:05:37;;;;;;;;;56.50;42.50;;;;;9.42;45.88;102211.09;5058273;28;45370;-49
2022/03/01 09:08:03;;;;;;;;;50.75;41.00;;;;;9.48;45.84;102214.66;5058086;28;45497;-48
2022/03/01 09:10:29;;;;;;;;;58.75;45.75;;;;;9.52;46.12;102219.09;5059086;28;46419;-49
2022/03/01 09:12:55;;;;;;;;;54.00;44.25;;;;;9.56;46.12;102221.78;5059326;28;45236;-47
2022/03/01 09:15:23;;;;;;;;;54.25;43.00;;;;;9.62;46.07;102222.72;5059264;27;45444;-48
2022/03/01 09:17:49;;;;;;;;;41.75;35.75;;;;;9.65;45.95;102228.91;5059435;28;45323;-48
2022/03/01 09:20:15;;;;;;;;;59.00;46.00;;;;;9.73;45.96;102235.13;5059214;28;45387;-46
2022/03/01 09:22:41;;;;;;;;;54.50;43.50;;;;;9.80;46.05;102227.31;5059397;28;45317;-48
2022/03/01 09:25:07;;;;;;;;;58.75;44.75;;;;;9.86;46.09;102224.78;5059201;28;45413;-47
2022/03/01 09:27:33;;;;;;;;;59.25;47.50;;;;;9.92;46.04;102219.59;5059007;28;45425;-47
2022/03/01 09:29:59;;;;;;;;;60.50;45.50;;;;;10.00;46.01;102225.84;5058731;28;45257;-47
2022/03/01 09:32:25;;;;;;;;;53.25;43.75;;;;;10.07;46.17;102222.44;5062038;28;45284;-47
2022/03/01 09:34:51;;;;;;;;;52.75;41.25;;;;;10.18;45.98;102229.56;5062610;28;45198;-46
2022/03/01 09:37:17;;;;;;;;;57.00;45.25;;;;;10.25;46.25;102223.47;5062691;28;45306;-47
2022/03/01 09:39:42;;;;;;;;;53.75;42.00;;;;;10.34;46.11;102223.59;5062216;28;46546;-47
2022/03/01 09:42:10;;;;;;;;;54.00;42.75;;;;;10.42;46.22;102214.94;5062391;28;45331;-48
2022/03/01 09:44:36;;;;;;;;;54.00;44.50;;;;;10.51;46.23;102218.53;5062503;28;45306;-48
2022/03/01 09:47:03;;;;;;;;;56.50;44.75;;;;;10.60;46.19;102215.09;5062373;28;45261;-49
2022/03/01 09:49:28;;;;;;;;;53.50;43.75;;;;;10.67;46.11;102210.81;5062204;28;46374;-46
2022/03/01 09:51:55;;;;;;;;;55.25;42.50;;;;;10.77;46.18;102211.75;5062310;28;45216;-48
2022/03/01 09:54:24;;;;;;;;;61.25;47.75;;;;;10.83;46.27;102204.81;5062244;28;45240;-45
2022/03/01 09:56:49;;;;;;;;;68.75;52.50;;;;;10.89;46.04;102196.97;5060808;28;45438;-47
2022/03/01 09:59:15;;;;;;;;;49.50;40.50;;;;;10.99;46.22;102200.56;5061996;28;46191;-46
2022/03/01 10:01:51;;;;;;;;;56.50;43.50;;;;;11.09;46.20;102203.22;5062114;28;45375;-47
2022/03/01 10:04:17;;;;;;;;;58.75;46.00;;;;;11.15;46.14;102205.91;5060877;28;45467;-46
2022/03/01 10:06:45;;;;;;;;;52.50;42.00;;;;;11.22;46.07;102205.97;5062061;28;45488;-47
2022/03/01 10:09:14;;;;;;;;;56.25;44.75;;;;;11.30;46.39;102200.75;5061813;28;45481;-46
2022/03/01 10:11:39;;;;;;;;;59.00;46.50;;;;;11.37;46.13;102202.53;5061716;28;45466;-46
2022/03/01 10:14:05;;;;;;;;;60.50;47.75;;;;;11.45;46.06;102207.84;5062047;28;45319;-45
2022/03/01 10:16:40;;;;;;;;;56.25;47.00;;;;;11.55;46.05;102199.13;5061937;28;45414;-47
2022/03/01 10:19:10;;;;;;;;;58.75;43.25;;;;;11.64;46.07;102203.53;5061656;28;45279;-48
2022/03/01 10:21:35;;;;;;;;;58.25;47.75;;;;;11.73;46.07;102205.34;5062000;28;45264;-46
2022/03/01 10:24:01;;;;;;;;;56.00;43.25;;;;;11.79;46.13;102192.19;5061813;28;45552;-47
2022/03/01 10:26:29;;;;;;;;;58.75;45.00;;;;;11.91;45.94;102201.03;5061841;28;45146;-48
2022/03/01 10:28:57;;;;;;;;;47.75;39.25;;;;;12.00;45.94;102207.25;5060160;28;48268;-45
2022/03/01 10:31:26;;;;;;;;;53.75;42.25;;;;;12.11;46.09;102211.66;5061655;28;45454;-48
2022/03/01 10:34:02;;;;;;;;;48.25;40.25;;;;;12.22;46.08;102209.06;5061680;28;45338;-48
2022/03/01 10:36:33;;;;;;;;;53.50;41.50;;;;;12.32;46.04;102210.84;5064573;28;45395;-49
2022/03/01 10:39:08;;;;;;;;;51.25;40.25;;;;;12.44;46.11;102202.06;5061634;28;47056;-47
2022/03/01 10:41:37;;;;;;;;;51.00;42.00;;;;;12.56;45.79;102203.84;5061277;28;45517;-48
2022/03/01 10:44:05;;;;;;;;;53.25;41.50;;;;;12.67;46.11;102200.31;5059724;28;45462;-48
2022/03/01 10:46:37;;;;;;;;;45.75;37.50;;;;;12.78;46.04;102202.06;5061432;28;45358;-47
2022/03/01 10:49:09;;;;;;;;;50.25;39.50;;;;;12.87;46.04;102193.28;5061512;28;46221;-50
2022/03/01 10:51:46;;;;;;;;;47.50;39.25;;;;;12.99;46.02;102193.28;5061374;28;45419;-47
2022/03/01 10:54:11;;;;;;;;;53.75;41.00;;;;;13.13;45.70;102187.97;5061410;28;45165;-48
2022/03/01 10:56:37;;;;;;;;;51.75;41.75;;;;;13.26;45.75;102188.84;5059974;28;45574;-49
2022/03/01 10:59:05;;;;;;;;;51.50;42.50;;;;;13.40;45.98;102183.56;5061430;28;45319;-47
2022/03/01 11:01:31;;;;;;;;;48.25;40.25;;;;;13.56;45.37;102189.66;5059968;28;45324;-46
2022/03/01 11:03:56;;;;;;;;;49.25;39.25;;;;;13.71;45.59;102173.75;5061546;28;45379;-48
2022/03/01 11:06:23;;;;;;;;;53.00;42.50;;;;;13.89;45.83;102171.91;5061333;28;45539;-46
2022/03/01 11:08:50;;;;;;;;;48.25;38.25;;;;;14.07;45.86;102166.50;5058947;28;45245;-46
2022/03/01 11:11:21;;;;;;;;;47.25;40.00;;;;;14.25;45.47;102173.47;5060967;28;45324;-47